»·PEaware :: DAL414 KLVS-KAMA

DAL414 :: KLVS-KAMA

FLIGHT INFORMATION

Flight Status: Arrived
Operator:
Delta Air Lines
More flights by this operator :: More flights under this callsign
Pilot: Anonymous 18904 (18904)
Aircraft: SAAB 340
(SF34)
More flights by this aircraft type
Origin: KLVS Las Vegas Mun
United States
Destination: KAMA Amarillo Intl
United States
More flights between these airports :: More routes between these airports
Route: FTI J58 PNH
File this flight plan on PilotEdge
Remarks: HONK )
Altitude:
(Current/Filed)
25,000ft
Speed:
(Current/Filed)
300kts
Departed: 19-Apr-22 03:55 PM
Arrived: 19-Apr-22 04:31 PM
Distance/Time
Traveled:
170nm/0:36
Distance/Time
To Go:
Arrived

Flight Plot

Page will automatically refresh every two minutes.

Flight plan parsing failed; only flown route is shown


Map Options




Map Legend


Flown Route
Filed Route
Departure Airport
Arrival Airport
Navaid (VOR, NDB)
Fix

Horizontal Profiles

Position Reports

Time Latitude Longitude Heading Altitude Ground
Speed
19-Apr-22 15:30 35.652638 -105.148458 359 6881ft 0kts
19-Apr-22 15:31 35.652638 -105.148458 359 6881ft 0kts
19-Apr-22 15:32 35.652638 -105.148458 359 6881ft 0kts
19-Apr-22 15:33 35.652638 -105.148458 359 6881ft 0kts
19-Apr-22 15:34 35.652638 -105.148458 359 6881ft 0kts
19-Apr-22 15:35 35.652638 -105.148458 359 6881ft 0kts
19-Apr-22 15:36 35.652638 -105.148458 359 6881ft 0kts
19-Apr-22 15:37 35.652638 -105.148458 359 6881ft 0kts
19-Apr-22 15:38 35.652638 -105.148458 359 6881ft 0kts
19-Apr-22 15:39 35.652638 -105.148458 359 6881ft 0kts
19-Apr-22 15:40 35.652638 -105.148458 359 6881ft 0kts
19-Apr-22 15:41 35.652638 -105.148458 359 6881ft 0kts
19-Apr-22 15:42 35.652638 -105.148458 359 6881ft 0kts
19-Apr-22 15:43 35.652638 -105.148458 359 6881ft 0kts
19-Apr-22 15:44 35.652638 -105.148458 359 6881ft 0kts
19-Apr-22 15:45 35.652638 -105.148458 359 6881ft 0kts
19-Apr-22 15:46 35.652797 -105.148270 72 6881ft 5kts
19-Apr-22 15:47 35.652209 -105.146815 110 6881ft 7kts
19-Apr-22 15:48 35.649941 -105.146883 217 6881ft 5kts
19-Apr-22 15:49 35.649297 -105.147368 214 6881ft 6kts
19-Apr-22 15:50 35.648881 -105.147729 42 6881ft 12kts
19-Apr-22 15:51 35.651535 -105.144875 113 6881ft 10kts
19-Apr-22 15:52 35.648571 -105.139953 151 6881ft 25kts
19-Apr-22 15:53 35.644249 -105.136381 60 6881ft 9kts
19-Apr-22 15:55 35.662393 -105.147417 324 7653ft 135kts
19-Apr-22 15:56 35.696896 -105.111241 103 9503ft 218kts
19-Apr-22 15:57 35.670863 -105.047149 118 12104ft 209kts
19-Apr-22 15:58 35.648726 -104.977838 117 14136ft 219kts
19-Apr-22 15:59 35.631836 -104.897182 105 15963ft 238kts
19-Apr-22 16:00 35.620631 -104.813502 102 17522ft 250kts
19-Apr-22 16:01 35.610040 -104.725141 100 18945ft 260kts
19-Apr-22 16:02 35.599283 -104.630688 99 20311ft 268kts
19-Apr-22 16:03 35.588438 -104.529689 97 21562ft 276kts
19-Apr-22 16:04 35.578242 -104.428989 96 22687ft 281kts
19-Apr-22 16:05 35.568327 -104.324195 95 23682ft 286kts
19-Apr-22 16:06 35.559004 -104.218091 93 24493ft 289kts
19-Apr-22 16:07 35.550360 -104.111540 93 24939ft 304kts
19-Apr-22 16:08 35.542177 -103.998496 92 25045ft 318kts
19-Apr-22 16:09 35.510685 -103.882738 102 24748ft 343kts
19-Apr-22 16:10 35.492714 -103.761931 97 24700ft 346kts
19-Apr-22 16:11 35.477050 -103.637920 97 24779ft 345kts
19-Apr-22 16:12 35.461244 -103.515070 97 24787ft 345kts
19-Apr-22 16:13 35.444961 -103.388077 97 24767ft 346kts
19-Apr-22 16:14 35.429149 -103.268570 98 24766ft 344kts
19-Apr-22 16:15 35.432089 -103.155069 58 24825ft 325kts
19-Apr-22 16:15 35.425898 -103.061955 101 24931ft 335kts
19-Apr-22 16:17 35.409870 -102.927083 98 24766ft 342kts
19-Apr-22 16:18 35.390630 -102.811662 98 24779ft 341kts
19-Apr-22 16:18 35.377262 -102.714918 98 24774ft 341kts
19-Apr-22 16:20 35.359120 -102.581178 97 24798ft 340kts
19-Apr-22 16:21 35.343505 -102.466759 98 24791ft 340kts
19-Apr-22 16:22 35.327786 -102.352438 97 24801ft 340kts
19-Apr-22 16:23 35.311721 -102.238555 98 24786ft 339kts
19-Apr-22 16:23 35.298577 -102.144502 98 24079ft 331kts
19-Apr-22 16:24 35.282905 -102.033288 98 21342ft 316kts
19-Apr-22 16:26 35.261692 -101.913346 110 18018ft 309kts
19-Apr-22 16:27 35.229787 -101.816819 109 13950ft 297kts
19-Apr-22 16:27 35.230532 -101.739980 56 8822ft 268kts
19-Apr-22 16:28 35.259307 -101.674211 130 5027ft 165kts
19-Apr-22 16:29 35.234927 -101.695289 219 3796ft 101kts
19-Apr-22 16:30 35.224145 -101.705722 137 3610ft 16kts
19-Apr-22 16:31 35.220721 -101.705819 157 3610ft 16kts
19-Apr-22 16:32 35.220592 -101.705936 161 3611ft 20kts
19-Apr-22 16:33 35.220468 -101.706135 83 3610ft 8kts
19-Apr-22 16:34 35.220313 -101.706068 124 3605ft 9kts
19-Apr-22 16:35 35.220313 -101.706068 124 3605ft 9kts
19-Apr-22 16:36 35.220313 -101.706068 124 3605ft 9kts
19-Apr-22 16:37 35.220313 -101.706068 124 3605ft 9kts
19-Apr-22 16:38 35.220313 -101.706068 124 3604ft 0kts
19-Apr-22 16:39 35.220313 -101.706068 124 3604ft 0kts
19-Apr-22 16:40 35.220313 -101.706068 124 3604ft 0kts
19-Apr-22 16:41 35.220313 -101.706068 124 3604ft 0kts
19-Apr-22 16:42 35.220313 -101.706068 124 3604ft 0kts
19-Apr-22 16:43 35.220313 -101.706068 124 3604ft 0kts
19-Apr-22 16:44 35.220313 -101.706068 124 3604ft 0kts

Navigation Log

Ident Type
Flight plan parsing failed, navigation log unavailable